createdAt,value
2023-02-03T00:02:14.995Z,11.63
2023-02-03T00:04:42.355Z,10.60
2023-02-03T00:07:12.683Z,8.17
2023-02-03T00:09:40.541Z,9.53
2023-02-03T00:12:08.010Z,8.90
2023-02-03T00:14:35.140Z,9.73
2023-02-03T00:17:02.191Z,8.43
2023-02-03T00:19:29.281Z,11.30
2023-02-03T00:21:56.455Z,8.93
2023-02-03T00:24:23.978Z,12.03
2023-02-03T00:26:51.069Z,9.67
2023-02-03T00:29:18.696Z,12.03
2023-02-03T00:31:46.151Z,12.23
2023-02-03T00:34:13.585Z,11.43
2023-02-03T00:36:42.867Z,10.63
2023-02-03T00:39:10.226Z,14.93
2023-02-03T00:41:37.342Z,13.03
2023-02-03T00:44:04.680Z,14.23
2023-02-03T00:46:31.832Z,12.80
2023-02-03T00:48:59.081Z,15.00
2023-02-03T00:51:26.378Z,13.40
2023-02-03T00:53:55.139Z,12.43
2023-02-03T00:56:23.331Z,11.37
2023-02-03T00:58:50.569Z,10.87
2023-02-03T01:01:18.071Z,14.43
2023-02-03T01:03:45.276Z,8.47
2023-02-03T01:06:18.001Z,9.23
2023-02-03T01:08:46.314Z,11.77
2023-02-03T01:11:17.669Z,11.27
2023-02-03T01:13:45.861Z,11.00
2023-02-03T01:16:15.992Z,9.60
2023-02-03T01:18:44.429Z,8.67
2023-02-03T01:21:15.670Z,7.07
2023-02-03T01:23:43.548Z,7.30
2023-02-03T01:26:15.239Z,10.30
2023-02-03T01:28:42.542Z,8.40
2023-02-03T01:31:20.730Z,8.63
2023-02-03T01:33:48.795Z,8.10
2023-02-03T01:36:17.707Z,6.20
2023-02-03T01:38:46.159Z,8.17
2023-02-03T01:41:17.943Z,8.90
2023-02-03T01:43:49.706Z,8.33
2023-02-03T01:46:48.341Z,10.03
2023-02-03T01:49:25.587Z,6.87
2023-02-03T01:51:53.530Z,8.90
2023-02-03T01:54:29.328Z,6.67
2023-02-03T01:57:05.244Z,7.97
2023-02-03T01:59:34.856Z,9.03
2023-02-03T02:02:04.651Z,7.40
2023-02-03T02:04:43.457Z,7.43
2023-02-03T02:07:11.297Z,6.47
2023-02-03T02:09:40.812Z,6.17
2023-02-03T02:12:11.449Z,8.17
2023-02-03T02:14:40.727Z,6.20
2023-02-03T02:17:38.776Z,6.90
2023-02-03T02:20:35.844Z,6.30
2023-02-03T02:23:33.761Z,6.57
2023-02-03T02:26:44.776Z,6.07
2023-02-03T02:29:49.637Z,5.40
2023-02-03T02:32:30.553Z,4.43
2023-02-03T02:35:55.191Z,6.40
2023-02-03T02:38:51.437Z,5.57
2023-02-03T02:41:36.378Z,5.47
2023-02-03T02:44:35.667Z,6.57
2023-02-03T02:47:19.135Z,5.80
2023-02-03T02:50:04.503Z,6.17
2023-02-03T02:52:36.292Z,6.93
2023-02-03T02:55:15.526Z,9.33
2023-02-03T02:57:43.920Z,6.30
2023-02-03T03:00:12.796Z,9.63
2023-02-03T03:02:40.559Z,7.97
2023-02-03T03:05:12.259Z,7.97
2023-02-03T03:07:53.453Z,9.90
2023-02-03T03:10:24.864Z,9.57
2023-02-03T03:12:59.768Z,12.20
2023-02-03T03:15:30.763Z,11.03
2023-02-03T03:18:13.784Z,12.63
2023-02-03T03:20:44.280Z,11.33
2023-02-03T03:23:30.570Z,14.30
2023-02-03T03:26:19.607Z,11.27
2023-02-03T03:28:57.633Z,11.37
2023-02-03T03:31:24.923Z,10.53
2023-02-03T03:33:52.265Z,13.83
2023-02-03T03:36:30.328Z,15.83
2023-02-03T03:39:06.301Z,13.50
2023-02-03T03:41:56.728Z,14.80
2023-02-03T03:44:32.978Z,17.03
2023-02-03T03:47:15.007Z,15.37
2023-02-03T03:49:46.085Z,16.20
2023-02-03T03:52:20.286Z,18.60
2023-02-03T03:54:48.843Z,19.27
2023-02-03T03:57:26.114Z,17.03
2023-02-03T03:59:54.647Z,22.60
2023-02-03T04:02:22.896Z,26.40
2023-02-03T04:04:51.154Z,23.00
2023-02-03T04:07:19.892Z,25.83
2023-02-03T04:09:47.130Z,26.83
2023-02-03T04:12:23.297Z,26.40
2023-02-03T04:14:50.391Z,32.53
2023-02-03T04:17:20.081Z,29.47
2023-02-03T04:19:48.459Z,29.87
2023-02-03T04:22:15.575Z,29.03
2023-02-03T04:24:42.654Z,34.63
2023-02-03T04:27:09.860Z,35.87
2023-02-03T04:29:36.958Z,34.67
2023-02-03T04:32:04.288Z,34.23
2023-02-03T04:34:31.386Z,37.10
2023-02-03T04:36:58.479Z,33.70
2023-02-03T04:39:25.596Z,30.40
2023-02-03T04:41:52.699Z,29.70
2023-02-03T04:44:19.860Z,29.73
2023-02-03T04:46:46.971Z,27.60
2023-02-03T04:49:14.153Z,27.27
2023-02-03T04:51:43.144Z,24.90
2023-02-03T04:54:11.543Z,18.33
2023-02-03T04:56:38.642Z,18.07
2023-02-03T04:59:05.921Z,18.07
2023-02-03T05:01:33.039Z,20.67
2023-02-03T05:04:00.182Z,18.57
2023-02-03T05:06:29.951Z,13.37
2023-02-03T05:08:57.190Z,18.10
2023-02-03T05:11:24.452Z,17.67
2023-02-03T05:13:51.733Z,16.40
2023-02-03T05:16:19.173Z,11.43
2023-02-03T05:18:46.622Z,14.10
2023-02-03T05:21:14.495Z,13.47
2023-02-03T05:23:42.042Z,12.50
2023-02-03T05:26:09.159Z,11.03
2023-02-03T05:28:36.246Z,11.57
2023-02-03T05:31:04.182Z,10.43
2023-02-03T05:33:31.494Z,11.33
2023-02-03T05:35:58.686Z,13.20
2023-02-03T05:38:25.978Z,11.50
2023-02-03T05:41:11.913Z,12.07
2023-02-03T05:43:39.198Z,16.50
2023-02-03T05:46:07.634Z,11.77
2023-02-03T05:48:34.956Z,10.93
2023-02-03T05:51:02.161Z,12.30
2023-02-03T05:53:29.393Z,12.00
2023-02-03T05:55:56.553Z,11.77
2023-02-03T05:58:23.634Z,13.93
2023-02-03T06:00:51.981Z,8.27
2023-02-03T06:03:19.193Z,8.83
2023-02-03T06:05:46.398Z,10.83
2023-02-03T06:08:13.479Z,11.07
2023-02-03T06:10:40.551Z,12.27
2023-02-03T06:13:25.535Z,7.80
2023-02-03T06:15:52.795Z,8.10
2023-02-03T06:18:20.248Z,8.77
2023-02-03T06:20:47.489Z,5.33
2023-02-03T06:23:17.095Z,4.60
2023-02-03T06:25:44.566Z,6.20
2023-02-03T06:28:11.926Z,5.73
2023-02-03T06:30:39.263Z,5.70
2023-02-03T06:33:06.781Z,3.83
2023-02-03T06:35:33.958Z,5.63
2023-02-03T06:38:02.328Z,4.67
2023-02-03T06:40:29.992Z,6.73
2023-02-03T06:42:57.659Z,5.70
2023-02-03T06:45:25.116Z,5.87
2023-02-03T06:47:52.589Z,4.70
2023-02-03T06:50:19.992Z,6.20
2023-02-03T06:52:49.967Z,5.23
2023-02-03T06:55:17.657Z,5.50
2023-02-03T06:57:48.994Z,5.57
2023-02-03T07:00:19.378Z,3.67
2023-02-03T07:02:53.403Z,4.17
2023-02-03T07:05:21.665Z,4.70
2023-02-03T07:07:48.992Z,4.07
2023-02-03T07:10:16.436Z,3.97
2023-02-03T07:12:44.446Z,4.20
2023-02-03T07:15:17.015Z,4.47
2023-02-03T07:17:47.248Z,4.97
2023-02-03T07:20:17.580Z,8.07
2023-02-03T07:22:46.431Z,6.37
2023-02-03T07:25:13.640Z,4.33
2023-02-03T07:27:40.979Z,4.43
2023-02-03T07:30:09.471Z,4.90
2023-02-03T07:32:36.659Z,3.97
2023-02-03T07:35:04.300Z,3.40
2023-02-03T07:37:31.512Z,6.27
2023-02-03T07:39:58.837Z,4.50
2023-02-03T07:42:26.256Z,6.17
2023-02-03T07:44:53.891Z,3.33
2023-02-03T07:47:21.408Z,6.23
2023-02-03T07:49:53.913Z,4.43
2023-02-03T07:52:22.093Z,5.03
2023-02-03T07:54:52.667Z,3.47
2023-02-03T07:57:20.177Z,5.00
2023-02-03T07:59:47.576Z,7.60
2023-02-03T08:02:15.136Z,3.83
2023-02-03T08:04:42.614Z,4.30
2023-02-03T08:07:10.156Z,3.70
2023-02-03T08:09:37.667Z,2.80
2023-02-03T08:12:05.711Z,4.80
2023-02-03T08:14:32.999Z,3.67
2023-02-03T08:17:00.349Z,4.43
2023-02-03T08:19:27.777Z,5.47
2023-02-03T08:21:55.771Z,5.93
2023-02-03T08:24:23.707Z,5.77
2023-02-03T08:26:52.944Z,5.10
2023-02-03T08:29:21.192Z,6.57
2023-02-03T08:31:48.954Z,11.23
2023-02-03T08:34:16.559Z,12.07
2023-02-03T08:36:47.231Z,20.47
2023-02-03T08:39:16.710Z,9.90
2023-02-03T08:41:44.163Z,8.67
2023-02-03T08:44:11.550Z,10.63
2023-02-03T08:46:50.191Z,14.77
2023-02-03T08:49:21.712Z,17.33
2023-02-03T08:51:52.705Z,14.37
2023-02-03T08:54:25.279Z,14.93
2023-02-03T08:56:54.562Z,17.87
2023-02-03T08:59:23.618Z,13.47
2023-02-03T09:01:55.374Z,18.57
2023-02-03T09:04:34.510Z,16.33
2023-02-03T09:07:07.515Z,17.77
2023-02-03T09:09:49.887Z,19.27
2023-02-03T09:12:20.925Z,18.23
2023-02-03T09:14:48.564Z,29.60
2023-02-03T09:17:16.382Z,44.13
2023-02-03T09:19:47.211Z,23.93
2023-02-03T09:22:25.947Z,22.03
2023-02-03T09:25:03.842Z,27.33
2023-02-03T09:27:39.572Z,26.77
2023-02-03T09:30:21.403Z,24.83
2023-02-03T09:32:56.604Z,28.73
2023-02-03T09:35:33.332Z,28.97
2023-02-03T09:38:09.775Z,30.53
2023-02-03T09:40:41.645Z,22.93
2023-02-03T09:43:31.220Z,36.60
2023-02-03T09:46:30.015Z,50.17
2023-02-03T09:49:22.364Z,31.30
2023-02-03T09:52:18.382Z,36.47
2023-02-03T09:55:04.190Z,36.17
2023-02-03T09:58:03.083Z,37.23
2023-02-03T10:00:51.144Z,33.17
2023-02-03T10:03:59.835Z,34.27
2023-02-03T10:06:52.886Z,45.00
2023-02-03T10:09:57.391Z,36.40
2023-02-03T10:13:37.225Z,43.47
2023-02-03T10:16:43.491Z,34.93
2023-02-03T10:19:26.335Z,31.60
2023-02-03T10:22:04.044Z,39.63
2023-02-03T10:25:12.029Z,30.50
2023-02-03T10:28:13.930Z,36.37
2023-02-03T10:31:11.031Z,37.37
2023-02-03T10:33:42.973Z,39.20
2023-02-03T10:36:52.674Z,35.27
2023-02-03T10:39:47.965Z,33.53
2023-02-03T10:42:26.708Z,36.70
2023-02-03T10:45:11.988Z,25.37
2023-02-03T10:48:01.229Z,27.87
2023-02-03T10:50:32.311Z,20.47
2023-02-03T10:53:22.046Z,28.97
2023-02-03T10:56:04.880Z,27.53
2023-02-03T10:58:34.818Z,32.37
2023-02-03T11:01:25.924Z,29.87
2023-02-03T11:04:16.734Z,19.20
2023-02-03T11:07:04.312Z,22.33
2023-02-03T11:09:43.278Z,21.07
2023-02-03T11:12:18.519Z,18.87
2023-02-03T11:14:54.175Z,22.07
2023-02-03T11:17:30.129Z,17.20
2023-02-03T11:20:29.415Z,17.03
2023-02-03T11:22:58.431Z,12.83
2023-02-03T11:25:36.728Z,18.07
2023-02-03T11:28:16.289Z,14.53
2023-02-03T11:30:58.867Z,16.47
2023-02-03T11:33:36.470Z,15.27
2023-02-03T11:36:05.882Z,21.73
2023-02-03T11:38:41.326Z,17.10
2023-02-03T11:41:26.805Z,20.83
2023-02-03T11:43:59.477Z,21.07
2023-02-03T11:46:44.196Z,16.97
2023-02-03T11:49:21.325Z,25.90
2023-02-03T11:52:29.643Z,26.27
2023-02-03T11:55:16.740Z,18.63
2023-02-03T11:58:38.899Z,26.43
2023-02-03T12:01:46.286Z,21.90
2023-02-03T12:04:55.862Z,27.13
2023-02-03T12:07:54.313Z,27.03
2023-02-03T12:10:56.187Z,27.47
2023-02-03T12:13:54.051Z,23.60
2023-02-03T12:17:00.738Z,29.30
2023-02-03T12:20:09.149Z,27.00
2023-02-03T12:22:51.354Z,26.97
2023-02-03T12:25:38.155Z,26.67
2023-02-03T12:28:50.577Z,25.30
2023-02-03T12:31:33.239Z,26.70
2023-02-03T12:34:26.345Z,35.27
2023-02-03T12:37:25.545Z,29.50
2023-02-03T12:40:36.015Z,27.93
2023-02-03T12:43:55.898Z,23.83
2023-02-03T12:46:47.018Z,21.33
2023-02-03T12:49:44.977Z,22.07
2023-02-03T12:52:28.685Z,22.30
2023-02-03T12:55:19.319Z,23.33
2023-02-03T12:58:45.100Z,20.43
2023-02-03T13:01:44.635Z,25.23
2023-02-03T13:08:15.104Z,23.87
2023-02-03T13:11:10.828Z,31.80
2023-02-03T13:14:11.622Z,26.70
2023-02-03T13:17:03.291Z,22.03
2023-02-03T13:20:01.277Z,22.10
2023-02-03T13:22:35.944Z,27.27
2023-02-03T13:25:26.888Z,26.97
2023-02-03T13:28:22.613Z,29.90
2023-02-03T13:31:39.368Z,27.30
2023-02-03T13:34:37.077Z,33.77
2023-02-03T13:37:37.901Z,26.13
2023-02-03T13:40:30.421Z,31.53
2023-02-03T13:43:06.189Z,28.43
2023-02-03T13:45:45.700Z,24.53
2023-02-03T13:48:23.751Z,29.47
2023-02-03T13:51:03.393Z,29.37
2023-02-03T13:53:39.445Z,22.33
2023-02-03T13:56:25.469Z,32.93
2023-02-03T13:59:28.853Z,31.70
2023-02-03T14:02:24.508Z,29.77
2023-02-03T14:04:56.559Z,29.37
2023-02-03T14:07:25.684Z,30.57
2023-02-03T14:10:30.808Z,32.40
2023-02-03T14:13:00.681Z,26.83
2023-02-03T14:15:31.558Z,33.07
2023-02-03T14:18:41.327Z,33.03
2023-02-03T14:21:48.668Z,25.47
2023-02-03T14:24:19.222Z,36.13
2023-02-03T14:26:53.783Z,30.57
2023-02-03T14:29:30.024Z,35.07
2023-02-03T14:32:06.908Z,32.43
2023-02-03T14:34:45.823Z,34.37
2023-02-03T14:37:19.445Z,34.93
2023-02-03T14:39:55.952Z,36.80
2023-02-03T14:42:38.699Z,35.97
2023-02-03T14:45:09.537Z,30.13
2023-02-03T14:48:17.248Z,24.60
2023-02-03T14:51:19.936Z,33.00
2023-02-03T14:54:16.285Z,190.17
2023-02-03T14:57:23.547Z,34.33
2023-02-03T15:00:03.500Z,34.67
2023-02-03T15:02:33.450Z,23.30
2023-02-03T15:05:21.411Z,25.97
2023-02-03T15:07:52.089Z,33.70
2023-02-03T15:10:42.531Z,33.67
2023-02-03T15:13:31.468Z,30.13
2023-02-03T15:16:05.029Z,29.20
2023-02-03T15:18:36.729Z,40.87
2023-02-03T15:21:05.598Z,34.70
2023-02-03T15:23:48.428Z,27.07
2023-02-03T15:26:19.936Z,36.03
2023-02-03T15:29:07.389Z,32.60
2023-02-03T15:31:48.953Z,32.53
2023-02-03T15:34:26.739Z,37.20
2023-02-03T15:36:59.288Z,37.47
2023-02-03T15:39:47.695Z,28.33
2023-02-03T15:42:32.483Z,27.70
2023-02-03T15:45:13.680Z,35.10
2023-02-03T15:47:50.685Z,36.47
2023-02-03T15:50:32.767Z,34.37
2023-02-03T15:53:46.395Z,23.97
2023-02-03T15:56:41.233Z,24.73
2023-02-03T15:59:35.583Z,27.60
2023-02-03T16:02:16.959Z,31.80
2023-02-03T16:04:50.288Z,31.40
2023-02-03T16:07:25.478Z,19.17
2023-02-03T16:09:55.392Z,30.07
2023-02-03T16:12:29.537Z,22.43
2023-02-03T16:14:59.605Z,31.00
2023-02-03T16:17:39.287Z,25.20
2023-02-03T16:20:20.939Z,28.93
2023-02-03T16:23:24.326Z,28.43
2023-02-03T16:26:13.417Z,27.17
2023-02-03T16:28:59.824Z,25.50
2023-02-03T16:31:46.150Z,27.67
2023-02-03T16:34:38.045Z,20.90
2023-02-03T16:37:44.102Z,31.30
2023-02-03T16:40:32.945Z,26.90
2023-02-03T16:43:18.748Z,28.13
2023-02-03T16:46:04.695Z,23.83
2023-02-03T16:48:50.413Z,26.10
2023-02-03T16:51:17.882Z,19.13
2023-02-03T16:53:48.190Z,23.57
2023-02-03T16:56:18.318Z,19.67
2023-02-03T16:58:45.691Z,22.23
2023-02-03T17:01:13.235Z,22.67
2023-02-03T17:03:41.005Z,23.27
2023-02-03T17:06:12.094Z,25.87
2023-02-03T17:08:40.932Z,23.30
2023-02-03T17:11:21.154Z,28.43
2023-02-03T17:13:49.936Z,24.50
2023-02-03T17:16:21.342Z,25.13
2023-02-03T17:18:49.800Z,23.27
2023-02-03T17:21:24.112Z,18.33
2023-02-03T17:23:51.565Z,24.07
2023-02-03T17:26:19.521Z,22.83
2023-02-03T17:28:47.210Z,19.17
2023-02-03T17:31:18.231Z,24.60
2023-02-03T17:33:50.966Z,25.50
2023-02-03T17:36:23.354Z,24.87
2023-02-03T17:55:31.315Z,6.97
2023-02-03T17:57:59.099Z,4.10
2023-02-03T18:00:26.833Z,4.53
2023-02-03T18:02:55.463Z,4.47
2023-02-03T18:05:23.447Z,10.77
2023-02-03T18:07:51.129Z,3.70
2023-02-03T18:10:18.725Z,6.33
2023-02-03T18:12:46.021Z,5.50
2023-02-03T18:15:13.330Z,6.60
2023-02-03T18:17:40.872Z,3.43
2023-02-03T18:20:08.964Z,3.43
2023-02-03T18:22:36.797Z,2.77
2023-02-03T18:25:04.897Z,5.40
2023-02-03T18:27:32.412Z,2.10
2023-02-03T18:30:00.176Z,4.13
2023-02-03T18:32:31.528Z,4.03
2023-02-03T18:35:06.723Z,6.90
2023-02-03T18:37:34.160Z,4.10
2023-02-03T18:40:09.314Z,2.80
2023-02-03T18:42:36.834Z,2.57
2023-02-03T18:45:06.431Z,1.30
2023-02-03T18:47:34.172Z,1.57
2023-02-03T18:50:01.702Z,69.03
2023-02-03T18:52:29.056Z,2.03
2023-02-03T18:54:56.596Z,2.53
2023-02-03T18:57:25.288Z,2.80
2023-02-03T18:59:52.894Z,1.63
2023-02-03T19:02:21.623Z,2.73
2023-02-03T19:04:49.016Z,1.47
2023-02-03T19:07:16.708Z,5.10
2023-02-03T19:09:44.288Z,1.37
2023-02-03T19:12:12.169Z,5.07
2023-02-03T19:14:39.482Z,4.27
2023-02-03T19:17:06.921Z,1.47
2023-02-03T19:19:34.381Z,2.53
2023-02-03T19:22:01.904Z,2.43
2023-02-03T19:24:29.452Z,3.10
2023-02-03T19:26:57.147Z,1.93
2023-02-03T19:29:24.625Z,3.53
2023-02-03T19:31:52.571Z,2.23
2023-02-03T19:34:20.125Z,2.70
2023-02-03T19:36:47.902Z,3.60
2023-02-03T19:39:15.944Z,3.33
2023-02-03T19:41:43.275Z,2.73
2023-02-03T19:44:11.038Z,3.03
2023-02-03T19:46:38.722Z,3.00
2023-02-03T19:49:11.036Z,2.53
2023-02-03T19:51:44.986Z,1.67
2023-02-03T19:54:16.596Z,2.13
2023-02-03T19:56:45.111Z,3.73
2023-02-03T19:59:12.526Z,1.83
2023-02-03T20:01:40.613Z,4.47
2023-02-03T20:04:08.353Z,2.23
2023-02-03T20:06:35.983Z,2.93
2023-02-03T20:09:04.250Z,1.87
2023-02-03T20:11:31.618Z,3.37
2023-02-03T20:13:58.994Z,3.23
2023-02-03T20:16:26.575Z,1.20
2023-02-03T20:18:53.945Z,1.20
2023-02-03T20:21:21.226Z,2.27
2023-02-03T20:23:48.558Z,1.90
2023-02-03T20:26:15.887Z,3.00
2023-02-03T20:28:44.135Z,2.20
2023-02-03T20:31:13.230Z,2.10
2023-02-03T20:33:40.713Z,2.47
2023-02-03T20:36:09.901Z,2.50
2023-02-03T20:38:38.265Z,4.03
2023-02-03T20:41:11.460Z,3.63
2023-02-03T20:43:38.912Z,1.83
2023-02-03T20:46:15.680Z,2.90
2023-02-03T20:48:43.511Z,11.37
2023-02-03T20:51:18.443Z,2.33
2023-02-03T20:53:46.103Z,2.50
2023-02-03T20:56:16.858Z,2.10
2023-02-03T20:58:45.468Z,1.93
2023-02-03T21:01:21.049Z,2.77
2023-02-03T21:04:07.521Z,2.00
2023-02-03T21:06:35.795Z,3.07
2023-02-03T21:09:18.482Z,2.17
2023-02-03T21:11:45.927Z,4.17
2023-02-03T21:14:41.409Z,3.30
2023-02-03T21:17:23.685Z,1.87
2023-02-03T21:19:53.619Z,4.63
2023-02-03T21:22:26.865Z,2.13
2023-02-03T21:24:57.638Z,2.17
2023-02-03T21:27:33.598Z,4.20
2023-02-03T21:30:11.651Z,3.83
2023-02-03T21:32:40.958Z,3.73
2023-02-03T21:35:37.491Z,2.07
2023-02-03T21:38:33.555Z,4.30
2023-02-03T21:41:05.113Z,5.13
2023-02-03T21:43:36.160Z,5.37
2023-02-03T21:46:05.139Z,4.20
2023-02-03T21:48:37.628Z,3.23
2023-02-03T21:51:24.705Z,3.10
2023-02-03T21:54:03.472Z,3.63
2023-02-03T21:56:45.697Z,4.40
2023-02-03T21:59:22.371Z,4.03
2023-02-03T22:01:50.312Z,3.87
2023-02-03T22:04:17.880Z,2.77
2023-02-03T22:06:49.171Z,3.40
2023-02-03T22:09:23.637Z,5.23
2023-02-03T22:11:52.307Z,3.87
2023-02-03T22:14:21.211Z,9.07
2023-02-03T22:16:49.401Z,4.33
2023-02-03T22:19:17.782Z,2.93
2023-02-03T22:21:47.769Z,5.87
2023-02-03T22:24:15.720Z,4.00
2023-02-03T22:26:43.389Z,3.80
2023-02-03T22:29:11.006Z,5.53
2023-02-03T22:31:39.072Z,4.93
2023-02-03T22:34:06.913Z,3.70
2023-02-03T22:36:34.467Z,3.00
2023-02-03T22:39:01.997Z,1.37
2023-02-03T22:41:29.755Z,3.80
2023-02-03T22:43:57.318Z,2.37
2023-02-03T22:46:25.018Z,2.97
2023-02-03T22:48:52.520Z,3.87
2023-02-03T22:51:20.038Z,4.43
2023-02-03T22:53:47.694Z,1.83
2023-02-03T22:56:15.368Z,3.67
2023-02-03T22:58:42.896Z,3.00
2023-02-03T23:01:10.672Z,4.70
2023-02-03T23:03:38.639Z,3.13
2023-02-03T23:06:06.724Z,1.50
2023-02-03T23:08:34.669Z,2.37
2023-02-03T23:11:02.444Z,1.20
2023-02-03T23:13:30.004Z,6.23
2023-02-03T23:15:57.772Z,2.73
2023-02-03T23:18:25.533Z,2.17
2023-02-03T23:20:53.267Z,5.60
2023-02-03T23:23:21.082Z,1.83
2023-02-03T23:25:49.264Z,3.83
2023-02-03T23:28:18.387Z,4.33
2023-02-03T23:30:46.500Z,2.00
2023-02-03T23:33:14.225Z,2.50
2023-02-03T23:35:47.636Z,5.13
2023-02-03T23:38:17.058Z,1.50
2023-02-03T23:40:45.230Z,2.30
2023-02-03T23:43:12.899Z,3.57
2023-02-03T23:45:41.791Z,2.87
2023-02-03T23:48:09.493Z,2.33
2023-02-03T23:50:37.139Z,2.63
2023-02-03T23:53:05.512Z,2.27
2023-02-03T23:55:33.019Z,3.17
2023-02-03T23:58:00.623Z,2.97
